sensor_id;sensor_type;location;lat;lon;timestamp;temperature;humidity
7192;DHT22;3637;51.494;11.958;2022-08-07T00:01:22;16.80;72.00
7192;DHT22;3637;51.494;11.958;2022-08-07T00:04:25;16.70;70.60
7192;DHT22;3637;51.494;11.958;2022-08-07T00:07:27;16.70;70.90
7192;DHT22;3637;51.494;11.958;2022-08-07T00:10:30;16.60;70.70
7192;DHT22;3637;51.494;11.958;2022-08-07T00:13:32;16.60;71.70
7192;DHT22;3637;51.494;11.958;2022-08-07T00:16:36;16.50;71.40
7192;DHT22;3637;51.494;11.958;2022-08-07T00:19:40;16.50;73.30
7192;DHT22;3637;51.494;11.958;2022-08-07T00:22:42;16.60;75.90
7192;DHT22;3637;51.494;11.958;2022-08-07T00:25:43;16.40;77.30
7192;DHT22;3637;51.494;11.958;2022-08-07T00:28:45;16.40;78.30
7192;DHT22;3637;51.494;11.958;2022-08-07T00:31:47;16.30;78.50
7192;DHT22;3637;51.494;11.958;2022-08-07T00:34:51;16.20;78.30
7192;DHT22;3637;51.494;11.958;2022-08-07T00:37:53;16.20;78.90
7192;DHT22;3637;51.494;11.958;2022-08-07T00:40:55;16.20;78.40
7192;DHT22;3637;51.494;11.958;2022-08-07T00:43:57;16.10;79.00
7192;DHT22;3637;51.494;11.958;2022-08-07T00:46:59;16.10;79.30
7192;DHT22;3637;51.494;11.958;2022-08-07T00:50:03;16.10;79.40
7192;DHT22;3637;51.494;11.958;2022-08-07T00:53:06;16.10;79.00
7192;DHT22;3637;51.494;11.958;2022-08-07T00:56:08;16.10;79.70
7192;DHT22;3637;51.494;11.958;2022-08-07T00:59:11;16.00;80.30
7192;DHT22;3637;51.494;11.958;2022-08-07T01:02:13;16.00;80.30
7192;DHT22;3637;51.494;11.958;2022-08-07T01:05:17;16.00;80.20
7192;DHT22;3637;51.494;11.958;2022-08-07T01:08:20;16.00;80.60
7192;DHT22;3637;51.494;11.958;2022-08-07T01:11:22;16.00;80.50
7192;DHT22;3637;51.494;11.958;2022-08-07T01:14:24;16.00;79.90
7192;DHT22;3637;51.494;11.958;2022-08-07T01:17:27;16.00;81.50
7192;DHT22;3637;51.494;11.958;2022-08-07T01:20:33;15.90;81.40
7192;DHT22;3637;51.494;11.958;2022-08-07T01:23:40;15.80;80.20
7192;DHT22;3637;51.494;11.958;2022-08-07T01:26:42;15.80;79.00
7192;DHT22;3637;51.494;11.958;2022-08-07T01:29:44;15.90;78.40
7192;DHT22;3637;51.494;11.958;2022-08-07T01:32:46;15.90;77.80
7192;DHT22;3637;51.494;11.958;2022-08-07T01:35:48;15.80;78.20
7192;DHT22;3637;51.494;11.958;2022-08-07T01:38:51;15.70;78.00
7192;DHT22;3637;51.494;11.958;2022-08-07T01:41:53;15.70;78.80
7192;DHT22;3637;51.494;11.958;2022-08-07T01:44:56;15.70;79.80
7192;DHT22;3637;51.494;11.958;2022-08-07T01:47:58;15.70;79.50
7192;DHT22;3637;51.494;11.958;2022-08-07T01:51:02;15.70;79.20
7192;DHT22;3637;51.494;11.958;2022-08-07T01:54:08;15.60;78.50
7192;DHT22;3637;51.494;11.958;2022-08-07T01:57:14;15.60;79.00
7192;DHT22;3637;51.494;11.958;2022-08-07T02:00:17;15.60;77.70
7192;DHT22;3637;51.494;11.958;2022-08-07T02:03:22;15.50;77.90
7192;DHT22;3637;51.494;11.958;2022-08-07T02:06:26;15.60;78.30
7192;DHT22;3637;51.494;11.958;2022-08-07T02:09:31;15.50;80.70
7192;DHT22;3637;51.494;11.958;2022-08-07T02:12:37;15.40;80.20
7192;DHT22;3637;51.494;11.958;2022-08-07T02:15:42;15.40;78.60
7192;DHT22;3637;51.494;11.958;2022-08-07T02:18:45;15.50;82.00
7192;DHT22;3637;51.494;11.958;2022-08-07T02:21:49;15.50;83.80
7192;DHT22;3637;51.494;11.958;2022-08-07T02:24:56;15.40;83.60
7192;DHT22;3637;51.494;11.958;2022-08-07T02:27:59;15.40;83.20
7192;DHT22;3637;51.494;11.958;2022-08-07T02:31:04;15.30;84.50
7192;DHT22;3637;51.494;11.958;2022-08-07T02:34:07;15.20;85.10
7192;DHT22;3637;51.494;11.958;2022-08-07T02:37:10;15.20;84.90
7192;DHT22;3637;51.494;11.958;2022-08-07T02:40:15;15.20;85.40
7192;DHT22;3637;51.494;11.958;2022-08-07T02:43:17;15.10;85.60
7192;DHT22;3637;51.494;11.958;2022-08-07T02:46:22;15.10;83.20
7192;DHT22;3637;51.494;11.958;2022-08-07T02:49:24;15.00;81.00
7192;DHT22;3637;51.494;11.958;2022-08-07T02:52:31;15.00;80.90
7192;DHT22;3637;51.494;11.958;2022-08-07T02:55:37;15.00;81.80
7192;DHT22;3637;51.494;11.958;2022-08-07T02:58:39;14.90;83.50
7192;DHT22;3637;51.494;11.958;2022-08-07T03:01:43;14.90;83.30
7192;DHT22;3637;51.494;11.958;2022-08-07T03:04:46;14.80;83.60
7192;DHT22;3637;51.494;11.958;2022-08-07T03:07:49;14.90;83.30
7192;DHT22;3637;51.494;11.958;2022-08-07T03:10:52;14.90;83.00
7192;DHT22;3637;51.494;11.958;2022-08-07T03:13:55;14.90;83.00
7192;DHT22;3637;51.494;11.958;2022-08-07T03:16:58;14.90;83.00
7192;DHT22;3637;51.494;11.958;2022-08-07T03:20:01;14.80;84.90
7192;DHT22;3637;51.494;11.958;2022-08-07T03:23:03;14.80;86.00
7192;DHT22;3637;51.494;11.958;2022-08-07T03:26:08;14.80;86.70
7192;DHT22;3637;51.494;11.958;2022-08-07T03:29:12;14.60;86.60
7192;DHT22;3637;51.494;11.958;2022-08-07T03:32:16;14.60;87.10
7192;DHT22;3637;51.494;11.958;2022-08-07T03:35:23;14.50;86.50
7192;DHT22;3637;51.494;11.958;2022-08-07T03:38:25;14.50;87.10
7192;DHT22;3637;51.494;11.958;2022-08-07T03:41:29;14.50;87.90
7192;DHT22;3637;51.494;11.958;2022-08-07T03:44:33;14.60;87.60
7192;DHT22;3637;51.494;11.958;2022-08-07T03:47:36;14.60;86.50
7192;DHT22;3637;51.494;11.958;2022-08-07T03:50:39;14.50;86.30
7192;DHT22;3637;51.494;11.958;2022-08-07T03:53:41;14.50;85.90
7192;DHT22;3637;51.494;11.958;2022-08-07T03:56:45;14.50;85.40
7192;DHT22;3637;51.494;11.958;2022-08-07T03:59:47;14.50;84.00
7192;DHT22;3637;51.494;11.958;2022-08-07T04:02:49;14.50;85.00
7192;DHT22;3637;51.494;11.958;2022-08-07T04:05:51;14.50;86.50
7192;DHT22;3637;51.494;11.958;2022-08-07T04:08:53;14.50;87.50
7192;DHT22;3637;51.494;11.958;2022-08-07T04:11:57;14.50;87.50
7192;DHT22;3637;51.494;11.958;2022-08-07T04:15:00;14.30;86.90
7192;DHT22;3637;51.494;11.958;2022-08-07T04:18:02;14.40;86.60
7192;DHT22;3637;51.494;11.958;2022-08-07T04:21:04;14.40;87.50
7192;DHT22;3637;51.494;11.958;2022-08-07T04:24:07;14.40;86.90
7192;DHT22;3637;51.494;11.958;2022-08-07T04:27:13;14.40;85.70
7192;DHT22;3637;51.494;11.958;2022-08-07T04:30:15;14.40;85.50
7192;DHT22;3637;51.494;11.958;2022-08-07T04:33:17;14.50;85.00
7192;DHT22;3637;51.494;11.958;2022-08-07T04:36:19;14.40;85.90
7192;DHT22;3637;51.494;11.958;2022-08-07T04:39:21;14.40;85.00
7192;DHT22;3637;51.494;11.958;2022-08-07T04:42:25;14.50;84.50
7192;DHT22;3637;51.494;11.958;2022-08-07T04:45:37;14.40;84.20
7192;DHT22;3637;51.494;11.958;2022-08-07T04:48:51;14.60;84.20
7192;DHT22;3637;51.494;11.958;2022-08-07T04:52:01;14.50;83.70
7192;DHT22;3637;51.494;11.958;2022-08-07T04:55:11;14.60;83.30
7192;DHT22;3637;51.494;11.958;2022-08-07T04:58:19;14.50;83.30
7192;DHT22;3637;51.494;11.958;2022-08-07T05:01:30;14.60;83.40
7192;DHT22;3637;51.494;11.958;2022-08-07T05:04:37;14.60;83.50
7192;DHT22;3637;51.494;11.958;2022-08-07T05:07:46;14.60;83.20
7192;DHT22;3637;51.494;11.958;2022-08-07T05:11:00;14.50;82.50
7192;DHT22;3637;51.494;11.958;2022-08-07T05:14:09;14.40;82.80
7192;DHT22;3637;51.494;11.958;2022-08-07T05:17:15;14.50;82.70
7192;DHT22;3637;51.494;11.958;2022-08-07T05:20:21;14.60;82.20
7192;DHT22;3637;51.494;11.958;2022-08-07T05:23:29;14.60;82.30
7192;DHT22;3637;51.494;11.958;2022-08-07T05:26:33;14.60;81.90
7192;DHT22;3637;51.494;11.958;2022-08-07T05:29:38;14.70;81.90
7192;DHT22;3637;51.494;11.958;2022-08-07T05:32:40;14.80;81.30
7192;DHT22;3637;51.494;11.958;2022-08-07T05:35:47;14.90;81.40
7192;DHT22;3637;51.494;11.958;2022-08-07T05:38:50;15.00;80.70
7192;DHT22;3637;51.494;11.958;2022-08-07T05:41:53;15.10;80.60
7192;DHT22;3637;51.494;11.958;2022-08-07T05:44:57;15.20;80.10
7192;DHT22;3637;51.494;11.958;2022-08-07T05:47:59;15.20;79.40
7192;DHT22;3637;51.494;11.958;2022-08-07T05:51:03;15.30;79.30
7192;DHT22;3637;51.494;11.958;2022-08-07T05:54:06;15.40;79.40
7192;DHT22;3637;51.494;11.958;2022-08-07T05:57:08;15.40;79.50
7192;DHT22;3637;51.494;11.958;2022-08-07T06:00:13;15.50;79.40
7192;DHT22;3637;51.494;11.958;2022-08-07T06:03:15;15.60;79.20
7192;DHT22;3637;51.494;11.958;2022-08-07T06:06:20;15.70;78.00
7192;DHT22;3637;51.494;11.958;2022-08-07T06:09:23;15.80;78.20
7192;DHT22;3637;51.494;11.958;2022-08-07T06:12:25;16.00;77.20
7192;DHT22;3637;51.494;11.958;2022-08-07T06:15:29;16.10;76.70
7192;DHT22;3637;51.494;11.958;2022-08-07T06:18:31;16.20;76.50
7192;DHT22;3637;51.494;11.958;2022-08-07T06:21:34;16.40;75.30
7192;DHT22;3637;51.494;11.958;2022-08-07T06:24:36;16.40;74.90
7192;DHT22;3637;51.494;11.958;2022-08-07T06:27:38;16.50;75.00
7192;DHT22;3637;51.494;11.958;2022-08-07T06:30:42;16.50;74.70
7192;DHT22;3637;51.494;11.958;2022-08-07T06:33:44;16.60;73.90
7192;DHT22;3637;51.494;11.958;2022-08-07T06:36:46;16.60;74.00
7192;DHT22;3637;51.494;11.958;2022-08-07T06:39:48;16.70;74.00
7192;DHT22;3637;51.494;11.958;2022-08-07T06:42:52;16.80;74.00
7192;DHT22;3637;51.494;11.958;2022-08-07T06:45:56;17.00;73.30
7192;DHT22;3637;51.494;11.958;2022-08-07T06:48:58;17.00;73.20
7192;DHT22;3637;51.494;11.958;2022-08-07T06:52:01;17.20;70.70
7192;DHT22;3637;51.494;11.958;2022-08-07T06:55:06;17.30;71.20
7192;DHT22;3637;51.494;11.958;2022-08-07T06:58:11;17.30;69.70
7192;DHT22;3637;51.494;11.958;2022-08-07T07:01:16;17.40;69.60
7192;DHT22;3637;51.494;11.958;2022-08-07T07:04:18;17.50;68.00
7192;DHT22;3637;51.494;11.958;2022-08-07T07:07:20;17.70;68.20
7192;DHT22;3637;51.494;11.958;2022-08-07T07:10:26;17.70;67.40
7192;DHT22;3637;51.494;11.958;2022-08-07T07:13:33;17.90;67.20
7192;DHT22;3637;51.494;11.958;2022-08-07T07:16:38;17.90;66.80
7192;DHT22;3637;51.494;11.958;2022-08-07T07:19:46;18.00;65.00
7192;DHT22;3637;51.494;11.958;2022-08-07T07:22:49;18.10;65.60
7192;DHT22;3637;51.494;11.958;2022-08-07T07:25:56;18.20;65.40
7192;DHT22;3637;51.494;11.958;2022-08-07T07:29:03;18.30;65.00
7192;DHT22;3637;51.494;11.958;2022-08-07T07:32:10;18.40;63.50
7192;DHT22;3637;51.494;11.958;2022-08-07T07:35:13;18.50;64.10
7192;DHT22;3637;51.494;11.958;2022-08-07T07:38:18;18.60;64.10
7192;DHT22;3637;51.494;11.958;2022-08-07T07:41:21;18.70;63.50
7192;DHT22;3637;51.494;11.958;2022-08-07T07:44:26;18.70;62.70
7192;DHT22;3637;51.494;11.958;2022-08-07T07:47:35;18.80;63.30
7192;DHT22;3637;51.494;11.958;2022-08-07T07:50:38;18.80;62.60
7192;DHT22;3637;51.494;11.958;2022-08-07T07:53:44;19.00;62.20
7192;DHT22;3637;51.494;11.958;2022-08-07T07:56:47;19.00;61.90
7192;DHT22;3637;51.494;11.958;2022-08-07T07:59:50;19.10;62.70
7192;DHT22;3637;51.494;11.958;2022-08-07T08:02:56;19.20;61.50
7192;DHT22;3637;51.494;11.958;2022-08-07T08:05:59;19.30;61.30
7192;DHT22;3637;51.494;11.958;2022-08-07T08:09:03;19.30;61.40
7192;DHT22;3637;51.494;11.958;2022-08-07T08:12:07;19.40;61.10
7192;DHT22;3637;51.494;11.958;2022-08-07T08:15:09;19.50;62.00
7192;DHT22;3637;51.494;11.958;2022-08-07T08:18:13;19.50;60.30
7192;DHT22;3637;51.494;11.958;2022-08-07T08:21:17;19.70;60.90
7192;DHT22;3637;51.494;11.958;2022-08-07T08:24:36;19.70;60.00
7192;DHT22;3637;51.494;11.958;2022-08-07T08:27:56;19.80;59.90
7192;DHT22;3637;51.494;11.958;2022-08-07T08:30:59;19.90;59.40
7192;DHT22;3637;51.494;11.958;2022-08-07T08:34:05;20.00;60.00
7192;DHT22;3637;51.494;11.958;2022-08-07T08:37:09;20.00;58.90
7192;DHT22;3637;51.494;11.958;2022-08-07T08:40:14;20.10;57.60
7192;DHT22;3637;51.494;11.958;2022-08-07T08:43:22;20.10;57.80
7192;DHT22;3637;51.494;11.958;2022-08-07T08:46:37;20.20;57.50
7192;DHT22;3637;51.494;11.958;2022-08-07T08:49:52;20.30;56.60
7192;DHT22;3637;51.494;11.958;2022-08-07T08:53:02;20.50;55.90
7192;DHT22;3637;51.494;11.958;2022-08-07T08:56:09;20.50;54.30
7192;DHT22;3637;51.494;11.958;2022-08-07T08:59:16;20.60;53.70
7192;DHT22;3637;51.494;11.958;2022-08-07T09:02:26;20.60;53.60
7192;DHT22;3637;51.494;11.958;2022-08-07T09:05:42;20.60;53.60
7192;DHT22;3637;51.494;11.958;2022-08-07T09:08:54;20.60;53.00
7192;DHT22;3637;51.494;11.958;2022-08-07T09:12:03;20.70;52.30
7192;DHT22;3637;51.494;11.958;2022-08-07T09:15:17;20.80;53.10
7192;DHT22;3637;51.494;11.958;2022-08-07T09:18:41;21.00;52.60
7192;DHT22;3637;51.494;11.958;2022-08-07T09:22:05;21.00;52.60
7192;DHT22;3637;51.494;11.958;2022-08-07T09:25:10;21.10;51.70
7192;DHT22;3637;51.494;11.958;2022-08-07T09:28:22;21.10;52.10
7192;DHT22;3637;51.494;11.958;2022-08-07T09:31:30;21.10;51.30
7192;DHT22;3637;51.494;11.958;2022-08-07T09:34:47;21.10;51.90
7192;DHT22;3637;51.494;11.958;2022-08-07T09:37:59;21.20;50.60
7192;DHT22;3637;51.494;11.958;2022-08-07T09:41:13;21.20;50.80
7192;DHT22;3637;51.494;11.958;2022-08-07T09:44:23;21.20;49.80
7192;DHT22;3637;51.494;11.958;2022-08-07T09:47:34;21.10;50.70
7192;DHT22;3637;51.494;11.958;2022-08-07T09:50:51;21.10;50.40
7192;DHT22;3637;51.494;11.958;2022-08-07T09:53:58;21.10;51.40
7192;DHT22;3637;51.494;11.958;2022-08-07T09:57:29;21.20;50.30
7192;DHT22;3637;51.494;11.958;2022-08-07T10:00:47;21.40;48.40
7192;DHT22;3637;51.494;11.958;2022-08-07T10:07:33;21.70;46.60
7192;DHT22;3637;51.494;11.958;2022-08-07T10:10:47;21.80;47.90
7192;DHT22;3637;51.494;11.958;2022-08-07T10:13:58;21.90;47.10
7192;DHT22;3637;51.494;11.958;2022-08-07T10:17:16;21.90;47.00
7192;DHT22;3637;51.494;11.958;2022-08-07T10:20:30;22.00;47.10
7192;DHT22;3637;51.494;11.958;2022-08-07T10:23:45;22.00;46.20
7192;DHT22;3637;51.494;11.958;2022-08-07T10:27:03;22.10;45.60
7192;DHT22;3637;51.494;11.958;2022-08-07T10:30:12;22.00;46.70
7192;DHT22;3637;51.494;11.958;2022-08-07T10:33:42;21.90;46.10
7192;DHT22;3637;51.494;11.958;2022-08-07T10:36:56;21.90;47.50
7192;DHT22;3637;51.494;11.958;2022-08-07T10:40:04;22.00;45.50
7192;DHT22;3637;51.494;11.958;2022-08-07T10:43:13;22.00;45.30
7192;DHT22;3637;51.494;11.958;2022-08-07T10:46:18;22.00;46.00
7192;DHT22;3637;51.494;11.958;2022-08-07T10:49:22;22.10;46.10
7192;DHT22;3637;51.494;11.958;2022-08-07T10:52:31;22.10;45.60
7192;DHT22;3637;51.494;11.958;2022-08-07T10:55:41;22.20;44.80
7192;DHT22;3637;51.494;11.958;2022-08-07T10:59:05;22.20;45.60
7192;DHT22;3637;51.494;11.958;2022-08-07T11:02:14;22.20;44.90
7192;DHT22;3637;51.494;11.958;2022-08-07T11:05:27;22.30;45.30
7192;DHT22;3637;51.494;11.958;2022-08-07T11:08:38;22.30;45.00
7192;DHT22;3637;51.494;11.958;2022-08-07T11:11:46;22.30;45.20
7192;DHT22;3637;51.494;11.958;2022-08-07T11:14:53;22.40;44.60
7192;DHT22;3637;51.494;11.958;2022-08-07T11:18:02;22.50;44.40
7192;DHT22;3637;51.494;11.958;2022-08-07T11:21:10;22.40;45.50
7192;DHT22;3637;51.494;11.958;2022-08-07T11:24:21;22.30;45.40
7192;DHT22;3637;51.494;11.958;2022-08-07T11:27:29;22.40;45.90
7192;DHT22;3637;51.494;11.958;2022-08-07T11:30:42;22.50;45.90
7192;DHT22;3637;51.494;11.958;2022-08-07T11:33:50;22.50;45.10
7192;DHT22;3637;51.494;11.958;2022-08-07T11:37:00;22.50;45.10
7192;DHT22;3637;51.494;11.958;2022-08-07T11:40:13;22.60;45.50
7192;DHT22;3637;51.494;11.958;2022-08-07T11:43:21;22.70;44.10
7192;DHT22;3637;51.494;11.958;2022-08-07T11:46:45;22.70;44.00
7192;DHT22;3637;51.494;11.958;2022-08-07T11:49:59;22.70;44.70
7192;DHT22;3637;51.494;11.958;2022-08-07T11:53:24;22.70;43.70
7192;DHT22;3637;51.494;11.958;2022-08-07T11:56:35;22.70;43.70
7192;DHT22;3637;51.494;11.958;2022-08-07T11:59:57;22.60;44.30
7192;DHT22;3637;51.494;11.958;2022-08-07T12:06:44;22.80;44.30
7192;DHT22;3637;51.494;11.958;2022-08-07T12:09:50;22.90;44.00
7192;DHT22;3637;51.494;11.958;2022-08-07T12:12:59;22.90;44.10
7192;DHT22;3637;51.494;11.958;2022-08-07T12:16:10;23.10;43.00
7192;DHT22;3637;51.494;11.958;2022-08-07T12:19:20;23.00;42.30
7192;DHT22;3637;51.494;11.958;2022-08-07T12:22:36;23.00;43.30
7192;DHT22;3637;51.494;11.958;2022-08-07T12:25:47;23.20;43.00
7192;DHT22;3637;51.494;11.958;2022-08-07T12:29:00;23.40;43.00
7192;DHT22;3637;51.494;11.958;2022-08-07T12:32:10;23.50;42.50
7192;DHT22;3637;51.494;11.958;2022-08-07T12:35:14;23.50;42.60
7192;DHT22;3637;51.494;11.958;2022-08-07T12:38:19;23.50;41.90
7192;DHT22;3637;51.494;11.958;2022-08-07T12:41:23;23.60;42.30
7192;DHT22;3637;51.494;11.958;2022-08-07T12:44:25;23.40;42.00
7192;DHT22;3637;51.494;11.958;2022-08-07T12:47:39;23.40;42.50
7192;DHT22;3637;51.494;11.958;2022-08-07T12:50:49;23.40;42.10
7192;DHT22;3637;51.494;11.958;2022-08-07T12:54:03;23.40;42.30
7192;DHT22;3637;51.494;11.958;2022-08-07T12:57:06;23.40;41.90
7192;DHT22;3637;51.494;11.958;2022-08-07T13:00:10;23.40;41.60
7192;DHT22;3637;51.494;11.958;2022-08-07T13:03:25;23.50;40.00
7192;DHT22;3637;51.494;11.958;2022-08-07T13:06:51;23.40;40.30
7192;DHT22;3637;51.494;11.958;2022-08-07T13:10:13;23.40;40.00
7192;DHT22;3637;51.494;11.958;2022-08-07T13:13:35;23.50;40.60
7192;DHT22;3637;51.494;11.958;2022-08-07T13:16:47;23.60;41.00
7192;DHT22;3637;51.494;11.958;2022-08-07T13:20:02;23.50;40.30
7192;DHT22;3637;51.494;11.958;2022-08-07T13:23:08;23.50;40.60
7192;DHT22;3637;51.494;11.958;2022-08-07T13:26:18;23.50;41.10
7192;DHT22;3637;51.494;11.958;2022-08-07T13:29:26;23.60;40.60
7192;DHT22;3637;51.494;11.958;2022-08-07T13:32:37;23.60;41.80
7192;DHT22;3637;51.494;11.958;2022-08-07T13:35:46;23.70;41.50
7192;DHT22;3637;51.494;11.958;2022-08-07T13:38:57;23.80;42.10
7192;DHT22;3637;51.494;11.958;2022-08-07T13:42:03;23.90;41.00
7192;DHT22;3637;51.494;11.958;2022-08-07T13:45:10;24.00;41.90
7192;DHT22;3637;51.494;11.958;2022-08-07T13:48:13;24.00;40.30
7192;DHT22;3637;51.494;11.958;2022-08-07T13:51:16;24.10;40.10
7192;DHT22;3637;51.494;11.958;2022-08-07T13:54:26;23.90;39.80
7192;DHT22;3637;51.494;11.958;2022-08-07T13:57:31;23.90;40.10
7192;DHT22;3637;51.494;11.958;2022-08-07T14:00:36;23.90;39.90
7192;DHT22;3637;51.494;11.958;2022-08-07T14:03:39;23.90;40.30
7192;DHT22;3637;51.494;11.958;2022-08-07T14:06:43;24.00;40.90
7192;DHT22;3637;51.494;11.958;2022-08-07T14:09:46;24.00;39.20
7192;DHT22;3637;51.494;11.958;2022-08-07T14:12:56;24.00;40.40
7192;DHT22;3637;51.494;11.958;2022-08-07T14:16:01;24.00;40.30
7192;DHT22;3637;51.494;11.958;2022-08-07T14:19:13;24.10;40.00
7192;DHT22;3637;51.494;11.958;2022-08-07T14:22:19;24.10;40.10
7192;DHT22;3637;51.494;11.958;2022-08-07T14:25:27;24.30;40.60
7192;DHT22;3637;51.494;11.958;2022-08-07T14:28:35;24.30;39.90
7192;DHT22;3637;51.494;11.958;2022-08-07T14:31:37;24.30;40.20
7192;DHT22;3637;51.494;11.958;2022-08-07T14:34:41;24.20;39.90
7192;DHT22;3637;51.494;11.958;2022-08-07T14:37:46;24.30;40.00
7192;DHT22;3637;51.494;11.958;2022-08-07T14:40:53;24.20;39.30
7192;DHT22;3637;51.494;11.958;2022-08-07T14:43:57;24.20;39.90
7192;DHT22;3637;51.494;11.958;2022-08-07T14:47:03;24.30;40.20
7192;DHT22;3637;51.494;11.958;2022-08-07T14:50:07;24.30;39.40
7192;DHT22;3637;51.494;11.958;2022-08-07T14:53:10;24.20;39.10
7192;DHT22;3637;51.494;11.958;2022-08-07T14:56:13;24.20;39.30
7192;DHT22;3637;51.494;11.958;2022-08-07T14:59:22;24.10;39.30
7192;DHT22;3637;51.494;11.958;2022-08-07T15:02:25;24.00;39.40
7192;DHT22;3637;51.494;11.958;2022-08-07T15:05:28;24.00;40.30
7192;DHT22;3637;51.494;11.958;2022-08-07T15:08:32;23.90;39.90
7192;DHT22;3637;51.494;11.958;2022-08-07T15:11:38;23.90;39.60
7192;DHT22;3637;51.494;11.958;2022-08-07T15:14:49;23.90;39.80
7192;DHT22;3637;51.494;11.958;2022-08-07T15:17:55;23.90;39.80
7192;DHT22;3637;51.494;11.958;2022-08-07T15:20:59;23.90;40.30
7192;DHT22;3637;51.494;11.958;2022-08-07T15:24:06;24.00;40.00
7192;DHT22;3637;51.494;11.958;2022-08-07T15:27:13;24.20;40.40
7192;DHT22;3637;51.494;11.958;2022-08-07T15:30:17;24.20;39.80
7192;DHT22;3637;51.494;11.958;2022-08-07T15:33:19;24.20;39.50
7192;DHT22;3637;51.494;11.958;2022-08-07T15:36:22;24.20;39.60
7192;DHT22;3637;51.494;11.958;2022-08-07T15:39:24;24.10;39.20
7192;DHT22;3637;51.494;11.958;2022-08-07T15:42:48;24.10;38.80
7192;DHT22;3637;51.494;11.958;2022-08-07T15:45:54;24.10;39.30
7192;DHT22;3637;51.494;11.958;2022-08-07T15:48:58;24.10;39.00
7192;DHT22;3637;51.494;11.958;2022-08-07T15:52:01;24.20;39.20
7192;DHT22;3637;51.494;11.958;2022-08-07T15:55:07;24.20;38.50
7192;DHT22;3637;51.494;11.958;2022-08-07T15:58:13;24.10;39.40
7192;DHT22;3637;51.494;11.958;2022-08-07T16:01:20;24.10;39.50
7192;DHT22;3637;51.494;11.958;2022-08-07T16:04:27;24.10;39.30
7192;DHT22;3637;51.494;11.958;2022-08-07T16:07:31;24.10;39.40
7192;DHT22;3637;51.494;11.958;2022-08-07T16:10:37;24.10;39.10
7192;DHT22;3637;51.494;11.958;2022-08-07T16:14:08;24.20;38.80
7192;DHT22;3637;51.494;11.958;2022-08-07T16:17:23;24.10;38.60
7192;DHT22;3637;51.494;11.958;2022-08-07T16:20:40;24.20;39.00
7192;DHT22;3637;51.494;11.958;2022-08-07T16:23:58;24.20;38.30
7192;DHT22;3637;51.494;11.958;2022-08-07T16:27:08;24.10;38.50
7192;DHT22;3637;51.494;11.958;2022-08-07T16:30:14;24.10;38.90
7192;DHT22;3637;51.494;11.958;2022-08-07T16:33:19;24.10;38.50
7192;DHT22;3637;51.494;11.958;2022-08-07T16:36:33;24.20;38.10
7192;DHT22;3637;51.494;11.958;2022-08-07T16:39:59;24.20;38.80
7192;DHT22;3637;51.494;11.958;2022-08-07T16:43:14;24.10;38.80
7192;DHT22;3637;51.494;11.958;2022-08-07T16:46:32;24.10;39.10
7192;DHT22;3637;51.494;11.958;2022-08-07T16:50:07;24.10;38.70
7192;DHT22;3637;51.494;11.958;2022-08-07T16:53:42;24.10;38.60
7192;DHT22;3637;51.494;11.958;2022-08-07T16:57:01;24.10;39.10
7192;DHT22;3637;51.494;11.958;2022-08-07T17:00:10;24.10;39.50
7192;DHT22;3637;51.494;11.958;2022-08-07T17:03:17;24.20;39.30
7192;DHT22;3637;51.494;11.958;2022-08-07T17:06:36;24.10;39.50
7192;DHT22;3637;51.494;11.958;2022-08-07T17:09:46;24.20;39.40
7192;DHT22;3637;51.494;11.958;2022-08-07T17:12:53;24.20;39.30
7192;DHT22;3637;51.494;11.958;2022-08-07T17:16:03;24.00;39.30
7192;DHT22;3637;51.494;11.958;2022-08-07T17:19:10;24.00;39.30
7192;DHT22;3637;51.494;11.958;2022-08-07T17:22:23;23.90;39.70
7192;DHT22;3637;51.494;11.958;2022-08-07T17:25:33;23.80;40.00
7192;DHT22;3637;51.494;11.958;2022-08-07T17:29:00;23.80;39.60
7192;DHT22;3637;51.494;11.958;2022-08-07T17:32:24;23.70;39.40
7192;DHT22;3637;51.494;11.958;2022-08-07T17:35:34;23.70;40.10
7192;DHT22;3637;51.494;11.958;2022-08-07T17:38:48;23.70;40.10
7192;DHT22;3637;51.494;11.958;2022-08-07T17:41:54;23.70;41.10
7192;DHT22;3637;51.494;11.958;2022-08-07T17:44:57;23.60;40.30
7192;DHT22;3637;51.494;11.958;2022-08-07T17:48:04;23.70;40.50
7192;DHT22;3637;51.494;11.958;2022-08-07T17:51:13;23.60;41.10
7192;DHT22;3637;51.494;11.958;2022-08-07T17:54:19;23.50;41.30
7192;DHT22;3637;51.494;11.958;2022-08-07T17:57:28;23.40;42.30
7192;DHT22;3637;51.494;11.958;2022-08-07T18:00:34;23.30;41.60
7192;DHT22;3637;51.494;11.958;2022-08-07T18:03:46;23.30;41.70
7192;DHT22;3637;51.494;11.958;2022-08-07T18:06:53;23.30;42.30
7192;DHT22;3637;51.494;11.958;2022-08-07T18:10:01;23.20;41.80
7192;DHT22;3637;51.494;11.958;2022-08-07T18:13:10;23.10;42.60
7192;DHT22;3637;51.494;11.958;2022-08-07T18:16:16;23.10;42.70
7192;DHT22;3637;51.494;11.958;2022-08-07T18:19:28;23.10;42.70
7192;DHT22;3637;51.494;11.958;2022-08-07T18:22:36;23.00;42.40
7192;DHT22;3637;51.494;11.958;2022-08-07T18:25:44;23.00;43.00
7192;DHT22;3637;51.494;11.958;2022-08-07T18:29:00;23.00;43.80
7192;DHT22;3637;51.494;11.958;2022-08-07T18:32:20;22.90;43.60
7192;DHT22;3637;51.494;11.958;2022-08-07T18:35:29;22.90;43.80
7192;DHT22;3637;51.494;11.958;2022-08-07T18:38:44;22.80;44.10
7192;DHT22;3637;51.494;11.958;2022-08-07T18:42:02;22.70;44.80
7192;DHT22;3637;51.494;11.958;2022-08-07T18:45:11;22.60;44.60
7192;DHT22;3637;51.494;11.958;2022-08-07T18:48:22;22.50;43.80
7192;DHT22;3637;51.494;11.958;2022-08-07T18:51:31;22.50;44.60
7192;DHT22;3637;51.494;11.958;2022-08-07T18:54:44;22.40;45.00
7192;DHT22;3637;51.494;11.958;2022-08-07T18:58:02;22.40;44.80
7192;DHT22;3637;51.494;11.958;2022-08-07T19:01:25;22.30;45.40
7192;DHT22;3637;51.494;11.958;2022-08-07T19:04:34;22.30;45.80
7192;DHT22;3637;51.494;11.958;2022-08-07T19:07:46;22.20;46.70
7192;DHT22;3637;51.494;11.958;2022-08-07T19:10:57;22.20;46.40
7192;DHT22;3637;51.494;11.958;2022-08-07T19:14:10;22.10;46.80
7192;DHT22;3637;51.494;11.958;2022-08-07T19:17:14;22.00;46.70
7192;DHT22;3637;51.494;11.958;2022-08-07T19:20:22;21.90;47.00
7192;DHT22;3637;51.494;11.958;2022-08-07T19:23:27;21.90;47.10
7192;DHT22;3637;51.494;11.958;2022-08-07T19:26:34;21.80;47.70
7192;DHT22;3637;51.494;11.958;2022-08-07T19:29:41;21.80;48.00
7192;DHT22;3637;51.494;11.958;2022-08-07T19:32:44;21.70;47.50
7192;DHT22;3637;51.494;11.958;2022-08-07T19:35:52;21.70;48.20
7192;DHT22;3637;51.494;11.958;2022-08-07T19:38:57;21.70;49.40
7192;DHT22;3637;51.494;11.958;2022-08-07T19:42:00;21.60;49.00
7192;DHT22;3637;51.494;11.958;2022-08-07T19:45:07;21.40;48.70
7192;DHT22;3637;51.494;11.958;2022-08-07T19:48:10;21.40;49.50
7192;DHT22;3637;51.494;11.958;2022-08-07T19:51:16;21.40;49.80
7192;DHT22;3637;51.494;11.958;2022-08-07T19:54:19;21.30;50.20
7192;DHT22;3637;51.494;11.958;2022-08-07T19:57:24;21.30;50.30
7192;DHT22;3637;51.494;11.958;2022-08-07T20:00:29;21.20;50.10
7192;DHT22;3637;51.494;11.958;2022-08-07T20:03:35;21.10;50.50
7192;DHT22;3637;51.494;11.958;2022-08-07T20:06:37;21.10;50.80
7192;DHT22;3637;51.494;11.958;2022-08-07T20:09:43;21.00;51.10